sensor_id;sensor_type;location;lat;lon;timestamp;temperature;humidity
25753;DHT22;13600;50.816;4.416;2024-03-22T00:01:01;14.50;99.90
25753;DHT22;13600;50.816;4.416;2024-03-22T00:03:26;14.60;99.90
25753;DHT22;13600;50.816;4.416;2024-03-22T00:05:52;14.60;99.90
25753;DHT22;13600;50.816;4.416;2024-03-22T00:08:18;14.70;99.90
25753;DHT22;13600;50.816;4.416;2024-03-22T00:10:43;14.70;99.90
25753;DHT22;13600;50.816;4.416;2024-03-22T00:13:09;14.60;99.90
25753;DHT22;13600;50.816;4.416;2024-03-22T00:15:34;14.70;99.90
25753;DHT22;13600;50.816;4.416;2024-03-22T00:18:00;14.70;99.90
25753;DHT22;13600;50.816;4.416;2024-03-22T00:20:26;14.70;99.90
25753;DHT22;13600;50.816;4.416;2024-03-22T00:22:51;14.70;99.90
25753;DHT22;13600;50.816;4.416;2024-03-22T00:25:17;14.80;99.90
25753;DHT22;13600;50.816;4.416;2024-03-22T00:27:43;14.70;99.90
25753;DHT22;13600;50.816;4.416;2024-03-22T00:30:09;14.70;99.90
25753;DHT22;13600;50.816;4.416;2024-03-22T00:32:34;14.80;99.90
25753;DHT22;13600;50.816;4.416;2024-03-22T00:35:00;14.70;99.90
25753;DHT22;13600;50.816;4.416;2024-03-22T00:37:26;14.70;99.90
25753;DHT22;13600;50.816;4.416;2024-03-22T00:39:52;14.60;99.90
25753;DHT22;13600;50.816;4.416;2024-03-22T00:42:19;14.50;99.90
25753;DHT22;13600;50.816;4.416;2024-03-22T00:44:44;14.40;99.90
25753;DHT22;13600;50.816;4.416;2024-03-22T00:47:10;14.40;99.90
25753;DHT22;13600;50.816;4.416;2024-03-22T00:49:36;14.40;99.90
25753;DHT22;13600;50.816;4.416;2024-03-22T00:52:01;14.50;99.90
25753;DHT22;13600;50.816;4.416;2024-03-22T00:54:28;14.50;99.90
25753;DHT22;13600;50.816;4.416;2024-03-22T00:56:53;14.40;99.90
25753;DHT22;13600;50.816;4.416;2024-03-22T00:59:19;14.40;99.90
25753;DHT22;13600;50.816;4.416;2024-03-22T01:01:45;14.40;99.90
25753;DHT22;13600;50.816;4.416;2024-03-22T01:04:10;14.50;99.90
25753;DHT22;13600;50.816;4.416;2024-03-22T01:06:36;14.50;99.90
25753;DHT22;13600;50.816;4.416;2024-03-22T01:09:03;14.50;99.90
25753;DHT22;13600;50.816;4.416;2024-03-22T01:11:29;14.50;99.90
25753;DHT22;13600;50.816;4.416;2024-03-22T01:13:55;14.50;99.90
25753;DHT22;13600;50.816;4.416;2024-03-22T01:16:20;14.40;99.90
25753;DHT22;13600;50.816;4.416;2024-03-22T01:18:46;14.10;99.90
25753;DHT22;13600;50.816;4.416;2024-03-22T01:21:11;14.10;99.90
25753;DHT22;13600;50.816;4.416;2024-03-22T01:23:37;14.20;99.90
25753;DHT22;13600;50.816;4.416;2024-03-22T01:26:03;14.10;99.90
25753;DHT22;13600;50.816;4.416;2024-03-22T01:28:28;14.00;99.90
25753;DHT22;13600;50.816;4.416;2024-03-22T01:30:54;13.90;99.90
25753;DHT22;13600;50.816;4.416;2024-03-22T01:33:20;13.90;99.90
25753;DHT22;13600;50.816;4.416;2024-03-22T01:35:45;14.00;99.90
25753;DHT22;13600;50.816;4.416;2024-03-22T01:38:11;13.90;99.90
25753;DHT22;13600;50.816;4.416;2024-03-22T01:40:36;13.90;99.90
25753;DHT22;13600;50.816;4.416;2024-03-22T01:43:02;13.90;99.90
25753;DHT22;13600;50.816;4.416;2024-03-22T01:45:32;13.90;99.90
25753;DHT22;13600;50.816;4.416;2024-03-22T01:47:58;13.80;99.90
25753;DHT22;13600;50.816;4.416;2024-03-22T01:50:25;13.80;99.90
25753;DHT22;13600;50.816;4.416;2024-03-22T01:52:51;13.70;99.90
25753;DHT22;13600;50.816;4.416;2024-03-22T01:55:17;13.60;99.90
25753;DHT22;13600;50.816;4.416;2024-03-22T01:57:43;13.60;99.90
25753;DHT22;13600;50.816;4.416;2024-03-22T02:00:10;13.50;99.90
25753;DHT22;13600;50.816;4.416;2024-03-22T02:02:36;13.60;99.90
25753;DHT22;13600;50.816;4.416;2024-03-22T02:05:15;13.60;99.90
25753;DHT22;13600;50.816;4.416;2024-03-22T02:07:41;13.60;99.90
25753;DHT22;13600;50.816;4.416;2024-03-22T02:10:09;13.50;99.90
25753;DHT22;13600;50.816;4.416;2024-03-22T02:12:39;13.50;99.90
25753;DHT22;13600;50.816;4.416;2024-03-22T02:15:05;13.50;99.90
25753;DHT22;13600;50.816;4.416;2024-03-22T02:17:32;13.50;99.90
25753;DHT22;13600;50.816;4.416;2024-03-22T02:19:59;13.40;99.90
25753;DHT22;13600;50.816;4.416;2024-03-22T02:22:26;13.30;99.90
25753;DHT22;13600;50.816;4.416;2024-03-22T02:24:52;13.30;99.90
25753;DHT22;13600;50.816;4.416;2024-03-22T02:27:18;13.30;99.90
25753;DHT22;13600;50.816;4.416;2024-03-22T02:29:43;13.30;99.90
25753;DHT22;13600;50.816;4.416;2024-03-22T02:32:09;13.30;99.90
25753;DHT22;13600;50.816;4.416;2024-03-22T02:34:36;13.30;99.90
25753;DHT22;13600;50.816;4.416;2024-03-22T02:37:01;13.20;99.90
25753;DHT22;13600;50.816;4.416;2024-03-22T02:39:27;13.20;99.90
25753;DHT22;13600;50.816;4.416;2024-03-22T02:41:55;13.30;99.90
25753;DHT22;13600;50.816;4.416;2024-03-22T02:44:21;13.30;99.90
25753;DHT22;13600;50.816;4.416;2024-03-22T02:46:47;13.20;99.90
25753;DHT22;13600;50.816;4.416;2024-03-22T02:49:13;13.30;99.90
25753;DHT22;13600;50.816;4.416;2024-03-22T02:51:39;13.40;99.90
25753;DHT22;13600;50.816;4.416;2024-03-22T02:54:05;13.40;99.90
25753;DHT22;13600;50.816;4.416;2024-03-22T02:56:30;13.40;99.90
25753;DHT22;13600;50.816;4.416;2024-03-22T02:58:56;13.40;99.90
25753;DHT22;13600;50.816;4.416;2024-03-22T03:01:22;13.40;99.90
25753;DHT22;13600;50.816;4.416;2024-03-22T03:03:48;13.40;99.90
25753;DHT22;13600;50.816;4.416;2024-03-22T03:06:14;13.50;99.90
25753;DHT22;13600;50.816;4.416;2024-03-22T03:08:41;13.40;99.90
25753;DHT22;13600;50.816;4.416;2024-03-22T03:11:07;13.40;99.90
25753;DHT22;13600;50.816;4.416;2024-03-22T03:13:33;13.40;99.90
25753;DHT22;13600;50.816;4.416;2024-03-22T03:15:58;13.40;99.90
25753;DHT22;13600;50.816;4.416;2024-03-22T03:18:24;13.30;99.90
25753;DHT22;13600;50.816;4.416;2024-03-22T03:20:50;13.40;99.90
25753;DHT22;13600;50.816;4.416;2024-03-22T03:23:15;13.50;99.90
25753;DHT22;13600;50.816;4.416;2024-03-22T03:25:41;13.50;99.90
25753;DHT22;13600;50.816;4.416;2024-03-22T03:28:07;13.40;99.90
25753;DHT22;13600;50.816;4.416;2024-03-22T03:30:34;13.40;99.90
25753;DHT22;13600;50.816;4.416;2024-03-22T03:33:01;13.40;99.90
25753;DHT22;13600;50.816;4.416;2024-03-22T03:35:27;13.40;99.90
25753;DHT22;13600;50.816;4.416;2024-03-22T03:37:54;13.40;99.90
25753;DHT22;13600;50.816;4.416;2024-03-22T03:40:20;13.30;99.90
25753;DHT22;13600;50.816;4.416;2024-03-22T03:42:47;13.30;99.90
25753;DHT22;13600;50.816;4.416;2024-03-22T03:45:13;13.30;99.90
25753;DHT22;13600;50.816;4.416;2024-03-22T03:47:38;13.30;99.90
25753;DHT22;13600;50.816;4.416;2024-03-22T03:50:05;13.30;99.90
25753;DHT22;13600;50.816;4.416;2024-03-22T03:52:30;13.40;99.90
25753;DHT22;13600;50.816;4.416;2024-03-22T03:54:56;13.50;99.90
25753;DHT22;13600;50.816;4.416;2024-03-22T03:57:22;13.50;99.90
25753;DHT22;13600;50.816;4.416;2024-03-22T03:59:48;13.40;99.90
25753;DHT22;13600;50.816;4.416;2024-03-22T04:02:13;13.40;99.90
25753;DHT22;13600;50.816;4.416;2024-03-22T04:04:39;13.30;99.90
25753;DHT22;13600;50.816;4.416;2024-03-22T04:07:05;13.10;99.90
25753;DHT22;13600;50.816;4.416;2024-03-22T04:09:31;13.20;99.90
25753;DHT22;13600;50.816;4.416;2024-03-22T04:11:57;13.20;99.90
25753;DHT22;13600;50.816;4.416;2024-03-22T04:14:25;13.20;99.90
25753;DHT22;13600;50.816;4.416;2024-03-22T04:16:50;13.20;99.90
25753;DHT22;13600;50.816;4.416;2024-03-22T04:19:16;13.10;99.90
25753;DHT22;13600;50.816;4.416;2024-03-22T04:21:42;13.10;99.90
25753;DHT22;13600;50.816;4.416;2024-03-22T04:24:08;13.10;99.90
25753;DHT22;13600;50.816;4.416;2024-03-22T04:26:33;13.10;99.90
25753;DHT22;13600;50.816;4.416;2024-03-22T04:28:59;13.10;99.90
25753;DHT22;13600;50.816;4.416;2024-03-22T04:31:25;13.20;99.90
25753;DHT22;13600;50.816;4.416;2024-03-22T04:33:50;13.10;99.90
25753;DHT22;13600;50.816;4.416;2024-03-22T04:36:16;13.10;99.90
25753;DHT22;13600;50.816;4.416;2024-03-22T04:38:42;13.00;99.90
25753;DHT22;13600;50.816;4.416;2024-03-22T04:41:08;13.10;99.90
25753;DHT22;13600;50.816;4.416;2024-03-22T04:43:34;13.00;99.90
25753;DHT22;13600;50.816;4.416;2024-03-22T04:46:00;13.00;99.90
25753;DHT22;13600;50.816;4.416;2024-03-22T04:48:26;13.00;99.90
25753;DHT22;13600;50.816;4.416;2024-03-22T04:50:52;13.00;99.90
25753;DHT22;13600;50.816;4.416;2024-03-22T04:53:19;13.10;99.90
25753;DHT22;13600;50.816;4.416;2024-03-22T04:55:47;13.10;99.90
25753;DHT22;13600;50.816;4.416;2024-03-22T04:58:14;13.00;99.90
25753;DHT22;13600;50.816;4.416;2024-03-22T05:00:42;13.00;99.90
25753;DHT22;13600;50.816;4.416;2024-03-22T05:03:08;13.00;99.90
25753;DHT22;13600;50.816;4.416;2024-03-22T05:05:36;13.00;99.90
25753;DHT22;13600;50.816;4.416;2024-03-22T05:08:02;13.00;99.90
25753;DHT22;13600;50.816;4.416;2024-03-22T05:10:29;13.00;99.90
25753;DHT22;13600;50.816;4.416;2024-03-22T05:12:56;13.00;99.90
25753;DHT22;13600;50.816;4.416;2024-03-22T05:15:22;12.90;99.90
25753;DHT22;13600;50.816;4.416;2024-03-22T05:17:48;12.90;99.90
25753;DHT22;13600;50.816;4.416;2024-03-22T05:20:14;12.90;99.90
25753;DHT22;13600;50.816;4.416;2024-03-22T05:22:42;12.90;99.90
25753;DHT22;13600;50.816;4.416;2024-03-22T05:25:08;12.80;99.90
25753;DHT22;13600;50.816;4.416;2024-03-22T05:27:34;12.80;99.90
25753;DHT22;13600;50.816;4.416;2024-03-22T05:30:00;12.80;99.90
25753;DHT22;13600;50.816;4.416;2024-03-22T05:32:26;12.80;99.90
25753;DHT22;13600;50.816;4.416;2024-03-22T05:34:52;12.80;99.90
25753;DHT22;13600;50.816;4.416;2024-03-22T05:37:18;12.80;99.90
25753;DHT22;13600;50.816;4.416;2024-03-22T05:39:44;12.80;99.90
25753;DHT22;13600;50.816;4.416;2024-03-22T05:42:10;12.80;99.90
25753;DHT22;13600;50.816;4.416;2024-03-22T05:44:35;12.70;99.90
25753;DHT22;13600;50.816;4.416;2024-03-22T05:47:01;12.60;99.90
25753;DHT22;13600;50.816;4.416;2024-03-22T05:49:27;12.60;99.90
25753;DHT22;13600;50.816;4.416;2024-03-22T05:51:53;12.70;99.90
25753;DHT22;13600;50.816;4.416;2024-03-22T05:54:18;12.60;99.90
25753;DHT22;13600;50.816;4.416;2024-03-22T05:56:44;12.50;99.90
25753;DHT22;13600;50.816;4.416;2024-03-22T05:59:10;12.50;99.90
25753;DHT22;13600;50.816;4.416;2024-03-22T06:01:36;12.50;99.90
25753;DHT22;13600;50.816;4.416;2024-03-22T06:04:03;12.60;99.90
25753;DHT22;13600;50.816;4.416;2024-03-22T06:06:29;12.60;99.90
25753;DHT22;13600;50.816;4.416;2024-03-22T06:08:56;12.60;99.90
25753;DHT22;13600;50.816;4.416;2024-03-22T06:11:23;12.60;99.90
25753;DHT22;13600;50.816;4.416;2024-03-22T06:13:48;12.50;99.90
25753;DHT22;13600;50.816;4.416;2024-03-22T06:16:14;12.50;99.90
25753;DHT22;13600;50.816;4.416;2024-03-22T06:18:40;12.40;99.90
25753;DHT22;13600;50.816;4.416;2024-03-22T06:21:06;12.40;99.90
25753;DHT22;13600;50.816;4.416;2024-03-22T06:23:32;12.50;99.90
25753;DHT22;13600;50.816;4.416;2024-03-22T06:25:58;12.40;99.90
25753;DHT22;13600;50.816;4.416;2024-03-22T06:28:28;12.40;99.90
25753;DHT22;13600;50.816;4.416;2024-03-22T06:30:54;12.30;99.90
25753;DHT22;13600;50.816;4.416;2024-03-22T06:33:20;12.30;99.90
25753;DHT22;13600;50.816;4.416;2024-03-22T06:35:47;12.30;99.90
25753;DHT22;13600;50.816;4.416;2024-03-22T06:38:14;12.20;99.90
25753;DHT22;13600;50.816;4.416;2024-03-22T06:40:39;12.20;99.90
25753;DHT22;13600;50.816;4.416;2024-03-22T06:43:05;12.20;99.90
25753;DHT22;13600;50.816;4.416;2024-03-22T06:45:31;12.40;99.90
25753;DHT22;13600;50.816;4.416;2024-03-22T06:47:56;12.30;99.90
25753;DHT22;13600;50.816;4.416;2024-03-22T06:50:22;12.40;99.90
25753;DHT22;13600;50.816;4.416;2024-03-22T06:52:51;12.30;99.90
25753;DHT22;13600;50.816;4.416;2024-03-22T06:55:20;12.30;99.90
25753;DHT22;13600;50.816;4.416;2024-03-22T06:57:47;12.40;99.90
25753;DHT22;13600;50.816;4.416;2024-03-22T07:00:13;12.30;99.90
25753;DHT22;13600;50.816;4.416;2024-03-22T07:02:39;12.50;99.90
25753;DHT22;13600;50.816;4.416;2024-03-22T07:05:06;12.40;99.90
25753;DHT22;13600;50.816;4.416;2024-03-22T07:07:32;12.30;99.90
25753;DHT22;13600;50.816;4.416;2024-03-22T07:09:58;12.30;99.90
25753;DHT22;13600;50.816;4.416;2024-03-22T07:12:24;12.40;99.90
25753;DHT22;13600;50.816;4.416;2024-03-22T07:14:50;12.40;99.90
25753;DHT22;13600;50.816;4.416;2024-03-22T07:17:15;12.30;99.90
25753;DHT22;13600;50.816;4.416;2024-03-22T07:19:41;12.30;99.90
25753;DHT22;13600;50.816;4.416;2024-03-22T07:22:10;12.40;99.90
25753;DHT22;13600;50.816;4.416;2024-03-22T07:24:35;12.60;99.90
25753;DHT22;13600;50.816;4.416;2024-03-22T07:27:01;12.70;99.90
25753;DHT22;13600;50.816;4.416;2024-03-22T07:29:26;12.50;99.90
25753;DHT22;13600;50.816;4.416;2024-03-22T07:31:52;12.50;99.90
25753;DHT22;13600;50.816;4.416;2024-03-22T07:34:18;12.50;99.90
25753;DHT22;13600;50.816;4.416;2024-03-22T07:36:43;12.40;99.90
25753;DHT22;13600;50.816;4.416;2024-03-22T07:39:09;12.30;99.90
25753;DHT22;13600;50.816;4.416;2024-03-22T07:41:35;12.40;99.90
25753;DHT22;13600;50.816;4.416;2024-03-22T07:44:01;12.40;99.90
25753;DHT22;13600;50.816;4.416;2024-03-22T07:46:29;12.40;99.90
25753;DHT22;13600;50.816;4.416;2024-03-22T07:48:54;12.50;99.90
25753;DHT22;13600;50.816;4.416;2024-03-22T07:51:20;12.50;99.90
25753;DHT22;13600;50.816;4.416;2024-03-22T07:53:46;12.50;99.90
25753;DHT22;13600;50.816;4.416;2024-03-22T07:56:12;12.50;99.90
25753;DHT22;13600;50.816;4.416;2024-03-22T07:58:39;12.70;99.90
25753;DHT22;13600;50.816;4.416;2024-03-22T08:01:04;12.70;99.90
25753;DHT22;13600;50.816;4.416;2024-03-22T08:03:30;12.70;99.90
25753;DHT22;13600;50.816;4.416;2024-03-22T08:05:56;12.80;99.90
25753;DHT22;13600;50.816;4.416;2024-03-22T08:08:22;12.80;99.90
25753;DHT22;13600;50.816;4.416;2024-03-22T08:10:48;12.70;99.90
25753;DHT22;13600;50.816;4.416;2024-03-22T08:13:14;12.70;99.90
25753;DHT22;13600;50.816;4.416;2024-03-22T08:15:40;12.70;99.90
25753;DHT22;13600;50.816;4.416;2024-03-22T08:18:06;12.70;99.90
25753;DHT22;13600;50.816;4.416;2024-03-22T08:20:32;12.80;99.90
25753;DHT22;13600;50.816;4.416;2024-03-22T08:22:59;12.80;99.90
25753;DHT22;13600;50.816;4.416;2024-03-22T08:25:25;12.70;99.90
25753;DHT22;13600;50.816;4.416;2024-03-22T08:27:51;12.70;99.90
25753;DHT22;13600;50.816;4.416;2024-03-22T08:30:20;12.60;99.90
25753;DHT22;13600;50.816;4.416;2024-03-22T08:32:46;12.60;99.90
25753;DHT22;13600;50.816;4.416;2024-03-22T08:35:12;12.70;99.90
25753;DHT22;13600;50.816;4.416;2024-03-22T08:37:37;12.70;99.90
25753;DHT22;13600;50.816;4.416;2024-03-22T08:40:03;12.70;99.90
25753;DHT22;13600;50.816;4.416;2024-03-22T08:42:32;12.80;99.90
25753;DHT22;13600;50.816;4.416;2024-03-22T08:44:58;12.90;99.90
25753;DHT22;13600;50.816;4.416;2024-03-22T08:47:24;12.90;99.90
25753;DHT22;13600;50.816;4.416;2024-03-22T08:49:50;13.10;99.90
25753;DHT22;13600;50.816;4.416;2024-03-22T08:52:15;13.20;99.90
25753;DHT22;13600;50.816;4.416;2024-03-22T08:54:41;13.20;99.90
25753;DHT22;13600;50.816;4.416;2024-03-22T08:57:06;13.20;99.90
25753;DHT22;13600;50.816;4.416;2024-03-22T08:59:32;13.30;99.90
25753;DHT22;13600;50.816;4.416;2024-03-22T09:01:58;13.30;99.90
25753;DHT22;13600;50.816;4.416;2024-03-22T09:04:25;13.40;99.90
25753;DHT22;13600;50.816;4.416;2024-03-22T09:06:51;13.30;99.90
25753;DHT22;13600;50.816;4.416;2024-03-22T09:09:17;13.30;99.90
25753;DHT22;13600;50.816;4.416;2024-03-22T09:11:43;13.30;99.90
25753;DHT22;13600;50.816;4.416;2024-03-22T09:14:09;13.20;99.90
25753;DHT22;13600;50.816;4.416;2024-03-22T09:16:35;13.40;99.90
25753;DHT22;13600;50.816;4.416;2024-03-22T09:19:00;13.50;99.90
25753;DHT22;13600;50.816;4.416;2024-03-22T09:21:27;13.70;99.90
25753;DHT22;13600;50.816;4.416;2024-03-22T09:23:53;13.70;99.90
25753;DHT22;13600;50.816;4.416;2024-03-22T09:26:18;13.80;99.90
25753;DHT22;13600;50.816;4.416;2024-03-22T09:28:48;13.90;99.90
25753;DHT22;13600;50.816;4.416;2024-03-22T09:31:14;14.00;99.90
25753;DHT22;13600;50.816;4.416;2024-03-22T09:33:39;14.20;99.90
25753;DHT22;13600;50.816;4.416;2024-03-22T09:36:05;14.30;99.90
25753;DHT22;13600;50.816;4.416;2024-03-22T09:38:31;14.40;99.90
25753;DHT22;13600;50.816;4.416;2024-03-22T09:40:56;14.40;99.90
25753;DHT22;13600;50.816;4.416;2024-03-22T09:43:23;14.50;99.90
25753;DHT22;13600;50.816;4.416;2024-03-22T09:45:52;14.50;99.90
25753;DHT22;13600;50.816;4.416;2024-03-22T09:48:18;14.60;99.90
25753;DHT22;13600;50.816;4.416;2024-03-22T09:50:47;14.60;99.90
25753;DHT22;13600;50.816;4.416;2024-03-22T09:53:17;14.40;99.90
25753;DHT22;13600;50.816;4.416;2024-03-22T09:55:48;14.40;99.90
25753;DHT22;13600;50.816;4.416;2024-03-22T09:58:14;14.60;99.90
25753;DHT22;13600;50.816;4.416;2024-03-22T10:00:42;14.60;99.90
25753;DHT22;13600;50.816;4.416;2024-03-22T10:03:08;14.40;99.90
25753;DHT22;13600;50.816;4.416;2024-03-22T10:05:34;14.40;99.90
25753;DHT22;13600;50.816;4.416;2024-03-22T10:08:00;14.40;99.90
25753;DHT22;13600;50.816;4.416;2024-03-22T10:10:27;14.50;99.90
25753;DHT22;13600;50.816;4.416;2024-03-22T10:12:53;14.70;99.90
25753;DHT22;13600;50.816;4.416;2024-03-22T10:15:19;14.50;99.90
25753;DHT22;13600;50.816;4.416;2024-03-22T10:17:45;14.50;99.90
25753;DHT22;13600;50.816;4.416;2024-03-22T10:20:14;14.50;99.90
25753;DHT22;13600;50.816;4.416;2024-03-22T10:22:47;14.40;99.90
25753;DHT22;13600;50.816;4.416;2024-03-22T10:25:15;14.40;99.90
25753;DHT22;13600;50.816;4.416;2024-03-22T10:27:41;14.60;99.90
25753;DHT22;13600;50.816;4.416;2024-03-22T10:30:09;14.80;99.90
25753;DHT22;13600;50.816;4.416;2024-03-22T10:32:38;14.60;99.90
25753;DHT22;13600;50.816;4.416;2024-03-22T10:35:04;14.70;99.90
25753;DHT22;13600;50.816;4.416;2024-03-22T10:37:32;14.80;99.90
25753;DHT22;13600;50.816;4.416;2024-03-22T10:40:02;14.70;99.90
25753;DHT22;13600;50.816;4.416;2024-03-22T10:42:38;14.90;99.90
25753;DHT22;13600;50.816;4.416;2024-03-22T10:45:05;14.90;99.90
25753;DHT22;13600;50.816;4.416;2024-03-22T10:47:32;14.90;99.90
25753;DHT22;13600;50.816;4.416;2024-03-22T10:55:24;15.10;99.90
25753;DHT22;13600;50.816;4.416;2024-03-22T10:57:54;15.30;99.90
25753;DHT22;13600;50.816;4.416;2024-03-22T11:00:27;15.10;99.90
25753;DHT22;13600;50.816;4.416;2024-03-22T11:02:54;15.10;99.90
25753;DHT22;13600;50.816;4.416;2024-03-22T11:05:20;15.10;99.90
25753;DHT22;13600;50.816;4.416;2024-03-22T11:07:45;15.20;99.90
25753;DHT22;13600;50.816;4.416;2024-03-22T11:10:12;15.30;99.90
25753;DHT22;13600;50.816;4.416;2024-03-22T11:12:41;15.30;99.90
25753;DHT22;13600;50.816;4.416;2024-03-22T11:15:10;15.30;99.90
25753;DHT22;13600;50.816;4.416;2024-03-22T11:17:37;15.20;99.90
25753;DHT22;13600;50.816;4.416;2024-03-22T11:20:03;15.10;99.90
25753;DHT22;13600;50.816;4.416;2024-03-22T11:22:32;15.10;99.90
25753;DHT22;13600;50.816;4.416;2024-03-22T11:24:58;15.10;99.90
25753;DHT22;13600;50.816;4.416;2024-03-22T11:27:24;15.30;99.90
25753;DHT22;13600;50.816;4.416;2024-03-22T11:29:49;15.30;99.90
25753;DHT22;13600;50.816;4.416;2024-03-22T11:32:16;15.30;99.90
25753;DHT22;13600;50.816;4.416;2024-03-22T11:34:43;15.20;99.90
25753;DHT22;13600;50.816;4.416;2024-03-22T11:37:09;15.20;99.90
25753;DHT22;13600;50.816;4.416;2024-03-22T11:39:39;15.20;99.90
25753;DHT22;13600;50.816;4.416;2024-03-22T11:42:06;15.00;99.90
25753;DHT22;13600;50.816;4.416;2024-03-22T11:44:33;14.90;99.90
25753;DHT22;13600;50.816;4.416;2024-03-22T11:46:59;14.80;99.90
25753;DHT22;13600;50.816;4.416;2024-03-22T11:49:25;14.90;99.90
25753;DHT22;13600;50.816;4.416;2024-03-22T11:51:56;14.80;99.90
25753;DHT22;13600;50.816;4.416;2024-03-22T11:54:22;14.90;99.90
25753;DHT22;13600;50.816;4.416;2024-03-22T11:56:49;14.90;99.90
25753;DHT22;13600;50.816;4.416;2024-03-22T11:59:14;14.80;99.90
25753;DHT22;13600;50.816;4.416;2024-03-22T12:01:43;14.90;99.90
25753;DHT22;13600;50.816;4.416;2024-03-22T12:04:09;15.00;99.90
25753;DHT22;13600;50.816;4.416;2024-03-22T12:06:42;15.00;99.90
25753;DHT22;13600;50.816;4.416;2024-03-22T12:09:08;15.00;99.90
25753;DHT22;13600;50.816;4.416;2024-03-22T12:11:36;14.80;99.90
25753;DHT22;13600;50.816;4.416;2024-03-22T12:14:02;14.70;99.90
25753;DHT22;13600;50.816;4.416;2024-03-22T12:16:27;14.60;99.90
25753;DHT22;13600;50.816;4.416;2024-03-22T12:18:53;14.60;99.90
25753;DHT22;13600;50.816;4.416;2024-03-22T12:21:20;14.70;99.90
25753;DHT22;13600;50.816;4.416;2024-03-22T12:23:46;14.60;99.90
25753;DHT22;13600;50.816;4.416;2024-03-22T12:26:12;14.80;99.90
25753;DHT22;13600;50.816;4.416;2024-03-22T12:28:38;14.80;99.90
25753;DHT22;13600;50.816;4.416;2024-03-22T12:31:04;14.80;99.90
25753;DHT22;13600;50.816;4.416;2024-03-22T12:33:30;15.00;99.90
25753;DHT22;13600;50.816;4.416;2024-03-22T12:35:56;14.80;99.90
25753;DHT22;13600;50.816;4.416;2024-03-22T12:38:21;14.60;99.90
25753;DHT22;13600;50.816;4.416;2024-03-22T12:40:47;14.40;99.90
25753;DHT22;13600;50.816;4.416;2024-03-22T12:43:13;14.40;99.90
25753;DHT22;13600;50.816;4.416;2024-03-22T12:45:39;14.30;99.90
25753;DHT22;13600;50.816;4.416;2024-03-22T12:48:06;14.40;99.90
25753;DHT22;13600;50.816;4.416;2024-03-22T12:50:32;14.40;99.90
25753;DHT22;13600;50.816;4.416;2024-03-22T12:52:59;14.50;99.90
25753;DHT22;13600;50.816;4.416;2024-03-22T12:55:24;14.50;99.90
25753;DHT22;13600;50.816;4.416;2024-03-22T12:57:51;14.50;99.90
25753;DHT22;13600;50.816;4.416;2024-03-22T13:00:17;14.40;99.90
25753;DHT22;13600;50.816;4.416;2024-03-22T13:02:45;14.50;99.90
25753;DHT22;13600;50.816;4.416;2024-03-22T13:05:12;14.60;99.90
25753;DHT22;13600;50.816;4.416;2024-03-22T13:07:39;14.70;99.90
25753;DHT22;13600;50.816;4.416;2024-03-22T13:10:05;14.80;99.90
25753;DHT22;13600;50.816;4.416;2024-03-22T13:12:31;14.80;99.90
25753;DHT22;13600;50.816;4.416;2024-03-22T13:14:57;14.70;99.90
25753;DHT22;13600;50.816;4.416;2024-03-22T13:17:23;14.60;99.90
25753;DHT22;13600;50.816;4.416;2024-03-22T13:19:49;14.60;99.90
25753;DHT22;13600;50.816;4.416;2024-03-22T13:22:16;14.70;99.90
25753;DHT22;13600;50.816;4.416;2024-03-22T13:24:44;14.70;99.90
25753;DHT22;13600;50.816;4.416;2024-03-22T13:27:10;14.70;99.90
25753;DHT22;13600;50.816;4.416;2024-03-22T13:29:36;14.60;99.90
25753;DHT22;13600;50.816;4.416;2024-03-22T13:32:01;14.50;99.90
25753;DHT22;13600;50.816;4.416;2024-03-22T13:34:28;14.60;99.90
25753;DHT22;13600;50.816;4.416;2024-03-22T13:36:53;14.40;99.90
25753;DHT22;13600;50.816;4.416;2024-03-22T13:39:19;14.30;99.90
25753;DHT22;13600;50.816;4.416;2024-03-22T13:41:45;14.40;99.90
25753;DHT22;13600;50.816;4.416;2024-03-22T13:44:11;14.60;99.90
25753;DHT22;13600;50.816;4.416;2024-03-22T13:46:37;14.70;99.90
25753;DHT22;13600;50.816;4.416;2024-03-22T13:49:14;14.60;99.90
25753;DHT22;13600;50.816;4.416;2024-03-22T13:51:41;14.60;99.90
25753;DHT22;13600;50.816;4.416;2024-03-22T13:54:07;14.60;99.90
25753;DHT22;13600;50.816;4.416;2024-03-22T13:56:33;14.70;99.90
25753;DHT22;13600;50.816;4.416;2024-03-22T13:58:58;14.70;99.90
25753;DHT22;13600;50.816;4.416;2024-03-22T14:01:24;14.80;99.90
25753;DHT22;13600;50.816;4.416;2024-03-22T14:03:49;14.80;99.90
25753;DHT22;13600;50.816;4.416;2024-03-22T14:06:15;14.60;99.90
25753;DHT22;13600;50.816;4.416;2024-03-22T14:08:41;14.40;99.90
25753;DHT22;13600;50.816;4.416;2024-03-22T14:11:06;14.20;99.90
25753;DHT22;13600;50.816;4.416;2024-03-22T14:13:32;14.20;99.90
25753;DHT22;13600;50.816;4.416;2024-03-22T14:15:58;14.40;99.90
25753;DHT22;13600;50.816;4.416;2024-03-22T14:18:23;14.50;99.90
25753;DHT22;13600;50.816;4.416;2024-03-22T14:20:49;14.50;99.90
25753;DHT22;13600;50.816;4.416;2024-03-22T14:23:14;14.50;99.90
25753;DHT22;13600;50.816;4.416;2024-03-22T14:25:40;14.40;99.90
25753;DHT22;13600;50.816;4.416;2024-03-22T14:28:05;14.30;99.90
25753;DHT22;13600;50.816;4.416;2024-03-22T14:30:31;14.20;99.90
25753;DHT22;13600;50.816;4.416;2024-03-22T14:32:57;14.40;99.90
25753;DHT22;13600;50.816;4.416;2024-03-22T14:35:22;14.40;99.90
25753;DHT22;13600;50.816;4.416;2024-03-22T14:37:48;14.40;99.90
25753;DHT22;13600;50.816;4.416;2024-03-22T14:40:14;14.40;99.90
25753;DHT22;13600;50.816;4.416;2024-03-22T14:42:40;14.50;99.90
25753;DHT22;13600;50.816;4.416;2024-03-22T14:45:06;14.50;99.90
25753;DHT22;13600;50.816;4.416;2024-03-22T14:47:35;14.30;99.90
25753;DHT22;13600;50.816;4.416;2024-03-22T14:50:01;14.30;99.90
25753;DHT22;13600;50.816;4.416;2024-03-22T14:52:27;14.40;99.90
25753;DHT22;13600;50.816;4.416;2024-03-22T14:54:52;14.60;99.90
25753;DHT22;13600;50.816;4.416;2024-03-22T14:57:18;14.70;99.90
25753;DHT22;13600;50.816;4.416;2024-03-22T14:59:45;14.50;99.90
25753;DHT22;13600;50.816;4.416;2024-03-22T15:02:11;14.50;99.90
25753;DHT22;13600;50.816;4.416;2024-03-22T15:04:37;14.50;99.90
25753;DHT22;13600;50.816;4.416;2024-03-22T15:07:04;14.60;99.90
25753;DHT22;13600;50.816;4.416;2024-03-22T15:09:29;14.70;99.90
25753;DHT22;13600;50.816;4.416;2024-03-22T15:11:55;14.70;99.90
25753;DHT22;13600;50.816;4.416;2024-03-22T15:14:27;14.50;99.90
25753;DHT22;13600;50.816;4.416;2024-03-22T15:16:56;14.20;99.90
25753;DHT22;13600;50.816;4.416;2024-03-22T15:19:22;14.00;99.90
25753;DHT22;13600;50.816;4.416;2024-03-22T15:21:48;14.00;99.90
25753;DHT22;13600;50.816;4.416;2024-03-22T15:24:15;13.80;99.90
25753;DHT22;13600;50.816;4.416;2024-03-22T15:26:40;13.70;99.90
25753;DHT22;13600;50.816;4.416;2024-03-22T15:29:06;13.60;99.90